Portada
METAR-TAF:

METAR-TAF

Aeroports :

Elista, Rússia

latitud: 46-22N, longitud: 044-20E, altitud: 150 m

Observació

L'informe es va fer fa 10 minuts, a les 09:30 UTC
Vent 10 kt del Sud/Sud-Est, variant entre Est/Sud-Est i Sud
Temperatura 24°C
Humitat 29%
Pressió 1015 hPa
Visibilitat 10 km o més
Núvols disperses

METAR: URWI 080930Z 15005MPS 110V190 9999 SCT/// 24/05 Q1015 R09/010065 NOSIG

Hora: 13:40 (09:40 UTC)

Pronòstic

L'informe es va fer fa 1 hora i 40 minuts, a les 08:00 UTC
Pronòstic vàlid del 08 a les 09 UTC al 08 a les 18 UTC
Vent 12 kt del Sud amb ràfegues de 25 kt
Visibilitat 10 km o més
Núvols disperses a una alçada de 2000 ft, Cumulus congestus.

TAF: URWI 080800Z 0809/0818 17006G13MPS 9999 SCT020TCU

Observacions i pronòstics meteorològics de més de 4000 aeroports (METAR i TAF).

Les estacions disponibles són els punts grocs i vermells al mapa.

Posi el ratolí al punt desitjat per veure el nom de l'estació.

Feu clic per veure les observacions i els pronòstics meteorològics.

Per canviar el mapa: feu clic els botons verds amb una creu de color negre per apropar; al botó verd amb un guió per allunyar la imatge; o en les fletxes verdes per a mapes adjacents.


METAR-TAF: